createdAt,value
2023-03-06T00:02:26.401Z,100016.13
2023-03-06T00:05:31.011Z,100012.03
2023-03-06T00:08:34.093Z,99998.31
2023-03-06T00:11:37.566Z,100005.59
2023-03-06T00:14:40.622Z,100005.72
2023-03-06T00:17:43.698Z,99998.72
2023-03-06T00:20:48.031Z,99997.00
2023-03-06T00:23:53.244Z,99992.81
2023-03-06T00:26:56.422Z,99985.38
2023-03-06T00:30:01.294Z,99989.88
2023-03-06T00:33:04.782Z,99991.22
2023-03-06T00:36:10.630Z,99976.06
2023-03-06T00:39:13.949Z,99972.25
2023-03-06T00:42:18.678Z,99972.09
2023-03-06T00:45:21.999Z,99965.31
2023-03-06T00:48:27.171Z,99950.06
2023-03-06T00:51:31.802Z,99944.56
2023-03-06T00:54:35.084Z,99945.63
2023-03-06T00:57:38.448Z,99945.63
2023-03-06T01:00:41.557Z,99934.72
2023-03-06T01:03:45.093Z,99919.34
2023-03-06T01:06:49.811Z,99915.13
2023-03-06T01:09:53.307Z,99913.44
2023-03-06T01:12:58.334Z,99907.56
2023-03-06T01:16:10.899Z,99902.44
2023-03-06T01:19:14.821Z,99893.78
2023-03-06T01:22:20.073Z,99892.56
2023-03-06T01:25:24.319Z,99878.72
2023-03-06T01:28:28.113Z,99872.25
2023-03-06T01:31:32.143Z,99862.78
2023-03-06T01:34:35.196Z,99862.50
2023-03-06T01:37:40.704Z,99852.44
2023-03-06T01:40:44.323Z,99847.16
2023-03-06T01:43:48.226Z,99839.47
2023-03-06T01:46:51.875Z,99830.75
2023-03-06T01:49:56.216Z,99822.94
2023-03-06T01:53:01.935Z,99822.16
2023-03-06T01:56:05.589Z,99812.97
2023-03-06T01:59:09.450Z,99812.75
2023-03-06T02:02:14.207Z,99800.00
2023-03-06T02:05:18.772Z,99801.38
2023-03-06T02:08:25.204Z,99801.25
2023-03-06T02:11:28.861Z,99801.25
2023-03-06T02:14:33.576Z,99782.56
2023-03-06T02:17:37.522Z,99794.94
2023-03-06T02:20:46.402Z,99781.28
2023-03-06T02:24:07.874Z,99784.47
2023-03-06T02:27:15.257Z,99768.13
2023-03-06T02:30:20.100Z,99766.41
2023-03-06T02:33:27.608Z,99760.88
2023-03-06T02:36:35.115Z,99764.91
2023-03-06T02:39:43.384Z,99767.38
2023-03-06T02:42:50.967Z,99764.69
2023-03-06T02:45:55.826Z,99754.22
2023-03-06T02:48:58.984Z,99745.59
2023-03-06T02:52:02.538Z,99742.13
2023-03-06T02:55:06.967Z,99737.53
2023-03-06T02:58:12.624Z,99738.31
2023-03-06T03:01:16.209Z,99728.47
2023-03-06T03:04:20.139Z,99732.66
2023-03-06T03:07:23.965Z,99720.78
2023-03-06T03:10:27.637Z,99721.38
2023-03-06T03:13:33.201Z,99726.16
2023-03-06T03:16:39.131Z,99714.28
2023-03-06T03:19:42.818Z,99718.69
2023-03-06T03:22:49.807Z,99717.59
2023-03-06T03:25:53.352Z,99716.13
2023-03-06T03:28:58.398Z,99718.28
2023-03-06T03:32:01.608Z,99699.56
2023-03-06T03:35:05.896Z,99705.13
2023-03-06T03:38:10.235Z,99707.72
2023-03-06T03:41:13.534Z,99712.63
2023-03-06T03:44:20.550Z,99704.78
2023-03-06T03:47:25.044Z,99702.94
2023-03-06T03:50:28.474Z,99700.28
2023-03-06T03:53:32.844Z,99701.13
2023-03-06T03:56:35.993Z,99707.75
2023-03-06T03:59:52.340Z,99701.47
2023-03-06T04:03:14.063Z,99702.81
2023-03-06T04:06:20.816Z,99702.81
2023-03-06T04:09:24.672Z,99705.31
2023-03-06T04:12:27.892Z,99703.66
2023-03-06T04:15:32.988Z,99708.63
2023-03-06T04:18:38.017Z,99720.75
2023-03-06T04:21:42.327Z,99716.88
2023-03-06T04:24:47.750Z,99723.47
2023-03-06T04:27:54.314Z,99726.66
2023-03-06T04:30:59.573Z,99733.00
2023-03-06T04:34:02.951Z,99725.78
2023-03-06T04:37:06.547Z,99734.75
2023-03-06T04:40:17.955Z,99736.69
2023-03-06T04:43:21.164Z,99736.09
2023-03-06T04:46:25.720Z,99739.66
2023-03-06T04:49:29.300Z,99745.59
2023-03-06T04:52:32.334Z,99748.38
2023-03-06T04:55:35.667Z,99750.34
2023-03-06T04:58:39.132Z,99750.34
2023-03-06T05:01:44.257Z,99751.38
2023-03-06T05:04:47.265Z,99737.50
2023-03-06T05:07:51.939Z,99743.56
2023-03-06T05:10:57.711Z,99751.84
2023-03-06T05:14:01.227Z,99741.59
2023-03-06T05:17:05.605Z,99752.78
2023-03-06T05:20:12.475Z,99753.88
2023-03-06T05:23:15.504Z,99758.00
2023-03-06T05:26:18.805Z,99757.38
2023-03-06T05:29:22.137Z,99764.47
2023-03-06T05:32:26.789Z,99763.72
2023-03-06T05:35:29.861Z,99769.94
2023-03-06T05:38:33.507Z,99765.66
2023-03-06T05:41:36.997Z,99774.88
2023-03-06T05:44:42.352Z,99773.97
2023-03-06T05:47:46.757Z,99772.53
2023-03-06T05:50:56.724Z,99767.59
2023-03-06T05:53:59.717Z,99772.94
2023-03-06T05:57:04.260Z,99774.66
2023-03-06T06:00:09.780Z,99772.19
2023-03-06T06:03:23.349Z,99772.09
2023-03-06T06:06:26.586Z,99771.19
2023-03-06T06:09:30.461Z,99772.22
2023-03-06T06:12:34.214Z,99776.88
2023-03-06T06:15:39.309Z,99772.22
2023-03-06T06:18:44.685Z,99773.84
2023-03-06T06:21:49.091Z,99774.75
2023-03-06T06:24:52.115Z,99783.09
2023-03-06T06:27:56.397Z,99781.44
2023-03-06T06:30:59.403Z,99779.78
2023-03-06T06:34:04.414Z,99788.19
2023-03-06T06:37:07.570Z,99795.25
2023-03-06T06:40:12.732Z,99790.41
2023-03-06T06:43:15.768Z,99789.91
2023-03-06T06:47:05.822Z,99790.03
2023-03-06T06:49:45.129Z,99793.78
2023-03-06T06:52:48.314Z,99792.13
2023-03-06T06:55:51.519Z,99793.78
2023-03-06T06:59:01.340Z,99797.94
2023-03-06T07:02:16.108Z,99794.19
2023-03-06T07:05:22.029Z,99797.72
2023-03-06T07:08:25.468Z,99798.44
2023-03-06T07:11:28.505Z,99794.69
2023-03-06T07:14:33.481Z,99793.09
2023-03-06T07:17:36.630Z,99791.06
2023-03-06T07:20:41.089Z,99798.75
2023-03-06T07:23:44.870Z,99798.00
2023-03-06T07:26:48.411Z,99797.72
2023-03-06T07:29:51.496Z,99805.53
2023-03-06T07:32:56.657Z,99803.97
2023-03-06T07:36:01.038Z,99797.53
2023-03-06T07:39:04.250Z,99795.72
2023-03-06T07:42:08.026Z,99801.31
2023-03-06T07:45:12.710Z,99798.00
2023-03-06T07:48:15.858Z,99798.75
2023-03-06T07:51:22.784Z,99797.81
2023-03-06T07:54:25.856Z,99800.16
2023-03-06T07:57:29.116Z,99804.66
2023-03-06T08:00:32.291Z,99807.56
2023-03-06T08:03:35.938Z,99802.44
2023-03-06T08:06:40.408Z,99805.69
2023-03-06T08:09:43.613Z,99804.16
2023-03-06T08:12:46.606Z,99802.66
2023-03-06T08:15:50.248Z,99810.53
2023-03-06T08:18:53.632Z,99809.16
2023-03-06T08:21:58.505Z,99803.81
2023-03-06T08:25:01.801Z,99805.00
2023-03-06T08:28:05.401Z,99802.78
2023-03-06T08:31:10.951Z,99811.38
2023-03-06T08:34:18.627Z,99812.34
2023-03-06T08:37:23.144Z,99806.63
2023-03-06T08:40:30.386Z,99809.78
2023-03-06T08:43:34.804Z,99815.13
2023-03-06T08:46:38.211Z,99820.63
2023-03-06T08:49:41.421Z,99810.28
2023-03-06T08:52:46.633Z,99820.84
2023-03-06T08:55:49.642Z,99833.25
2023-03-06T08:58:54.339Z,99833.81
2023-03-06T09:01:57.491Z,99833.53
2023-03-06T09:05:01.238Z,99835.88
2023-03-06T09:08:05.574Z,99836.63
2023-03-06T09:11:09.550Z,99839.47
2023-03-06T09:14:12.602Z,99845.44
2023-03-06T09:17:15.630Z,99835.19
2023-03-06T09:20:19.584Z,99842.13
2023-03-06T09:23:24.356Z,99841.75
2023-03-06T09:26:39.479Z,99845.53
2023-03-06T09:29:46.677Z,99842.34
2023-03-06T09:32:49.723Z,99843.44
2023-03-06T09:35:56.144Z,99841.22
2023-03-06T09:39:00.597Z,99847.84
2023-03-06T09:42:03.850Z,99848.66
2023-03-06T09:45:08.222Z,99842.66
2023-03-06T09:48:16.148Z,99850.28
2023-03-06T09:51:26.786Z,99852.97
2023-03-06T09:54:40.949Z,99848.03
2023-03-06T09:57:52.413Z,99853.16
2023-03-06T10:01:01.882Z,99854.53
2023-03-06T10:04:17.030Z,99847.81
2023-03-06T10:07:25.591Z,99853.25
2023-03-06T10:10:46.031Z,99852.72
2023-03-06T10:13:55.089Z,99852.56
2023-03-06T10:16:59.840Z,99854.38
2023-03-06T10:20:11.193Z,99854.09
2023-03-06T10:23:36.383Z,99861.19
2023-03-06T10:26:46.418Z,99862.69
2023-03-06T10:30:03.377Z,99854.69
2023-03-06T10:33:18.835Z,99859.66
2023-03-06T10:36:25.245Z,99865.78
2023-03-06T10:39:28.800Z,99854.38
2023-03-06T10:42:33.334Z,99860.44
2023-03-06T10:45:49.783Z,99866.91
2023-03-06T10:49:00.175Z,99863.63
2023-03-06T10:52:07.802Z,99866.75
2023-03-06T10:55:26.102Z,99860.47
2023-03-06T10:58:33.433Z,99864.50
2023-03-06T11:01:37.003Z,99856.44
2023-03-06T11:04:41.634Z,99867.69
2023-03-06T11:07:58.457Z,99858.22
2023-03-06T11:11:05.452Z,99856.50
2023-03-06T11:14:16.895Z,99855.31
2023-03-06T11:17:29.339Z,99856.22
2023-03-06T11:20:51.525Z,99855.22
2023-03-06T11:23:59.064Z,99849.81
2023-03-06T11:27:10.232Z,99858.19
2023-03-06T11:30:22.711Z,99847.63
2023-03-06T11:33:32.100Z,99849.28
2023-03-06T11:36:39.862Z,99848.44
2023-03-06T11:39:47.983Z,99843.81
2023-03-06T11:42:57.297Z,99847.75
2023-03-06T11:46:11.473Z,99846.94
2023-03-06T11:49:23.401Z,99853.50
2023-03-06T11:52:40.672Z,99839.75
2023-03-06T11:55:51.888Z,99840.34
2023-03-06T11:59:08.816Z,99834.63
2023-03-06T12:07:36.520Z,99836.78
2023-03-06T12:10:51.717Z,99828.09
2023-03-06T12:14:26.435Z,99829.41
2023-03-06T12:17:47.653Z,99825.19
2023-03-06T12:21:00.427Z,99823.78
2023-03-06T12:24:30.466Z,99824.75
2023-03-06T12:27:43.730Z,99828.53
2023-03-06T12:31:32.493Z,99825.88
2023-03-06T12:34:52.311Z,99822.81
2023-03-06T12:38:08.168Z,99816.69
2023-03-06T12:41:25.240Z,99823.66
2023-03-06T12:45:12.080Z,99829.28
2023-03-06T12:48:21.522Z,99832.63
2023-03-06T12:51:25.167Z,99825.50
2023-03-06T12:54:31.207Z,99826.72
2023-03-06T12:57:35.547Z,99826.47
2023-03-06T13:01:03.688Z,99832.97
2023-03-06T13:04:47.565Z,99831.66
2023-03-06T13:08:19.921Z,99827.22
2023-03-06T13:11:58.197Z,99821.00
2023-03-06T13:15:30.763Z,99815.34
2023-03-06T13:19:02.599Z,99811.72
2023-03-06T13:22:16.466Z,99809.13
2023-03-06T13:25:36.882Z,99807.81
2023-03-06T13:28:49.361Z,99807.22
2023-03-06T13:32:17.962Z,99809.06
2023-03-06T13:35:52.542Z,99810.22
2023-03-06T13:39:05.823Z,99805.41
2023-03-06T13:42:26.933Z,99801.81
2023-03-06T13:45:35.671Z,99800.28
2023-03-06T13:48:45.583Z,99793.50
2023-03-06T13:52:10.296Z,99793.13
2023-03-06T13:55:25.292Z,99796.03
2023-03-06T13:58:45.997Z,99793.84
2023-03-06T14:02:02.255Z,99796.81
2023-03-06T14:05:14.261Z,99792.63
2023-03-06T14:08:20.060Z,99792.84
2023-03-06T14:11:23.085Z,99792.94
2023-03-06T14:14:37.169Z,99798.56
2023-03-06T14:17:50.268Z,99798.56
2023-03-06T14:21:05.323Z,99785.41
2023-03-06T14:24:17.580Z,99792.44
2023-03-06T14:27:21.001Z,99789.47
2023-03-06T14:30:26.345Z,99791.06
2023-03-06T14:33:34.630Z,99791.06
2023-03-06T14:36:45.980Z,99779.09
2023-03-06T14:39:50.012Z,99785.78
2023-03-06T14:43:12.458Z,99789.41
2023-03-06T14:46:22.708Z,99786.56
2023-03-06T14:49:27.287Z,99782.41
2023-03-06T14:52:31.838Z,99778.66
2023-03-06T14:55:36.754Z,99778.91
2023-03-06T14:58:52.037Z,99784.88
2023-03-06T15:02:00.346Z,99773.72
2023-03-06T15:05:07.891Z,99776.72
2023-03-06T15:08:20.439Z,99782.66
2023-03-06T15:11:23.737Z,99779.84
2023-03-06T15:14:37.536Z,99775.53
2023-03-06T15:17:42.931Z,99776.25
2023-03-06T15:20:51.396Z,99771.31
2023-03-06T15:23:58.154Z,99770.84
2023-03-06T15:27:04.108Z,99779.00
2023-03-06T15:30:24.137Z,99779.38
2023-03-06T15:33:27.708Z,99782.56
2023-03-06T15:36:32.493Z,99780.63
2023-03-06T15:39:39.744Z,99770.81
2023-03-06T15:42:44.643Z,99770.06
2023-03-06T15:45:48.068Z,99773.09
2023-03-06T15:48:56.042Z,99770.13
2023-03-06T15:51:59.044Z,99769.66
2023-03-06T15:55:03.423Z,99772.72
2023-03-06T15:58:06.645Z,99772.06
2023-03-06T16:01:17.809Z,99780.28
2023-03-06T16:04:21.564Z,99771.06
2023-03-06T16:07:24.990Z,99775.78
2023-03-06T16:10:32.414Z,99771.25
2023-03-06T16:13:35.557Z,99772.56
2023-03-06T16:16:39.695Z,99773.72
2023-03-06T16:19:43.108Z,99777.34
2023-03-06T16:22:47.689Z,99774.38
2023-03-06T16:25:52.079Z,99768.72
2023-03-06T16:28:55.520Z,99770.06
2023-03-06T16:32:01.608Z,99772.66
2023-03-06T16:35:05.136Z,99767.91
2023-03-06T16:38:09.602Z,99771.53
2023-03-06T16:41:14.257Z,99766.66
2023-03-06T16:44:17.864Z,99772.03
2023-03-06T16:47:20.915Z,99769.38
2023-03-06T16:50:27.829Z,99770.69
2023-03-06T16:53:31.200Z,99769.50
2023-03-06T16:56:36.131Z,99775.28
2023-03-06T16:59:39.625Z,99769.31
2023-03-06T17:02:43.735Z,99773.28
2023-03-06T17:05:46.826Z,99779.72
2023-03-06T17:08:51.623Z,99786.00
2023-03-06T17:11:55.936Z,99790.38
2023-03-06T17:14:59.075Z,99788.94
2023-03-06T17:18:02.192Z,99802.66
2023-03-06T17:21:06.819Z,99808.63
2023-03-06T17:24:10.280Z,99805.03
2023-03-06T17:27:14.630Z,99812.09
2023-03-06T17:30:17.788Z,99811.41
2023-03-06T17:33:20.883Z,99813.31
2023-03-06T17:36:24.293Z,99821.66
2023-03-06T17:39:27.434Z,99824.13
2023-03-06T17:42:31.808Z,99819.16
2023-03-06T17:45:37.384Z,99824.25
2023-03-06T17:48:40.902Z,99826.81
2023-03-06T17:51:43.927Z,99835.03
2023-03-06T17:54:46.967Z,99834.47
2023-03-06T17:57:52.843Z,99835.81
2023-03-06T18:00:56.157Z,99833.13
2023-03-06T18:03:59.405Z,99840.53
2023-03-06T18:07:02.473Z,99832.69
2023-03-06T18:10:06.494Z,99838.50
2023-03-06T18:13:13.811Z,99836.44
2023-03-06T18:16:20.083Z,99839.09
2023-03-06T18:19:23.084Z,99837.41
2023-03-06T18:22:27.069Z,99832.50
2023-03-06T18:25:30.836Z,99829.06
2023-03-06T18:28:35.226Z,99841.38
2023-03-06T18:31:40.387Z,99832.53
2023-03-06T18:34:45.278Z,99823.47
2023-03-06T18:37:48.389Z,99832.97
2023-03-06T18:40:51.546Z,99828.69
2023-03-06T18:43:58.355Z,99832.53
2023-03-06T18:47:01.460Z,99831.72
2023-03-06T18:50:05.147Z,99832.16
2023-03-06T18:53:08.271Z,99828.34
2023-03-06T18:56:17.304Z,99826.53
2023-03-06T18:59:22.095Z,99830.25
2023-03-06T19:02:26.197Z,99826.84
2023-03-06T19:05:29.366Z,99823.97
2023-03-06T19:08:33.369Z,99824.41
2023-03-06T19:11:36.448Z,99832.16
2023-03-06T19:14:40.777Z,99831.44
2023-03-06T19:17:44.046Z,99829.19
2023-03-06T19:20:47.179Z,99826.69
2023-03-06T19:23:50.869Z,99823.03
2023-03-06T19:26:54.360Z,99822.06
2023-03-06T19:29:58.815Z,99823.84
2023-03-06T19:33:01.961Z,99817.13
2023-03-06T19:36:06.554Z,99822.38
2023-03-06T19:39:09.707Z,99820.81
2023-03-06T19:42:13.921Z,99816.69
2023-03-06T19:45:19.448Z,99815.06
2023-03-06T19:48:24.344Z,99813.41
2023-03-06T19:51:28.851Z,99811.78
2023-03-06T19:54:32.714Z,99807.28
2023-03-06T19:57:36.140Z,99811.09
2023-03-06T20:00:41.448Z,99807.94
2023-03-06T20:03:45.191Z,99809.34
2023-03-06T20:06:51.660Z,99812.31
2023-03-06T20:09:57.085Z,99808.81
2023-03-06T20:13:00.110Z,99811.66
2023-03-06T20:16:06.018Z,99793.53
2023-03-06T20:19:09.053Z,99793.78
2023-03-06T20:22:12.726Z,99804.09
2023-03-06T20:25:15.788Z,99802.75
2023-03-06T20:28:18.863Z,99797.69
2023-03-06T20:31:25.626Z,99797.13
2023-03-06T20:34:28.768Z,99790.03
2023-03-06T20:37:31.796Z,99787.91
2023-03-06T20:40:38.537Z,99786.25
2023-03-06T20:43:42.020Z,99782.81
2023-03-06T20:46:46.639Z,99781.88
2023-03-06T20:49:49.737Z,99776.88
2023-03-06T20:52:55.314Z,99766.06
2023-03-06T20:55:58.639Z,99763.66
2023-03-06T20:59:02.348Z,99761.13
2023-03-06T21:02:06.645Z,99753.94
2023-03-06T21:05:10.851Z,99752.38
2023-03-06T21:08:14.079Z,99748.91
2023-03-06T21:11:17.738Z,99745.63
2023-03-06T21:14:20.735Z,99747.25
2023-03-06T21:17:25.493Z,99744.88
2023-03-06T21:20:28.608Z,99739.78
2023-03-06T21:23:31.649Z,99744.31
2023-03-06T21:26:35.190Z,99739.31
2023-03-06T21:29:38.183Z,99734.31
2023-03-06T21:32:43.115Z,99728.03
2023-03-06T21:35:47.191Z,99717.94
2023-03-06T21:38:51.804Z,99722.22
2023-03-06T21:41:54.874Z,99717.25
2023-03-06T21:44:57.908Z,99715.78
2023-03-06T21:48:02.848Z,99707.22
2023-03-06T21:51:12.056Z,99711.69
2023-03-06T21:54:15.132Z,99711.75
2023-03-06T21:57:18.243Z,99711.97
2023-03-06T22:00:23.633Z,99712.03
2023-03-06T22:03:30.060Z,99705.16
2023-03-06T22:06:33.205Z,99707.69
2023-03-06T22:09:37.360Z,99708.69
2023-03-06T22:12:41.287Z,99705.44
2023-03-06T22:15:52.498Z,99708.06
2023-03-06T22:18:57.127Z,99697.06
2023-03-06T22:22:00.184Z,99686.97
2023-03-06T22:25:04.865Z,99682.97
2023-03-06T22:28:08.179Z,99683.09
2023-03-06T22:31:14.795Z,99683.03
2023-03-06T22:34:19.543Z,99676.19
2023-03-06T22:37:22.597Z,99678.03
2023-03-06T22:40:26.027Z,99667.88
2023-03-06T22:43:29.204Z,99667.00
2023-03-06T22:46:33.574Z,99662.69
2023-03-06T22:49:38.770Z,99657.69
2023-03-06T22:52:41.802Z,99656.25
2023-03-06T22:55:45.004Z,99648.66
2023-03-06T22:58:48.957Z,99639.28
2023-03-06T23:01:52.546Z,99628.84
2023-03-06T23:04:56.835Z,99630.56
2023-03-06T23:08:00.150Z,99624.81
2023-03-06T23:11:04.098Z,99625.97
2023-03-06T23:14:26.175Z,99620.84
2023-03-06T23:17:48.163Z,99615.53
2023-03-06T23:21:13.974Z,99617.84
2023-03-06T23:24:36.764Z,99607.38
2023-03-06T23:27:40.946Z,99608.06
2023-03-06T23:30:44.387Z,99607.22
2023-03-06T23:33:48.023Z,99609.38
2023-03-06T23:36:52.441Z,99604.16
2023-03-06T23:39:56.790Z,99598.81
2023-03-06T23:43:00.425Z,99601.19
2023-03-06T23:46:04.377Z,99595.91
2023-03-06T23:49:08.060Z,99580.53
2023-03-06T23:52:13.025Z,99583.81
2023-03-06T23:55:16.474Z,99581.00
2023-03-06T23:58:20.549Z,99574.84
